Terminal Aerodrome Forecast
Issued by NWS

Home | Current Version | Previous Version | Text Only | Print | Product List | Glossary On
Versions: 1 2 3 4 5 6 7 8 9 10 11 12 13 14
111
FTUS44 KJAN 011428 AAA
TAFHKS
TAF AMD
KHKS 011428Z 0114/0212 16006KT P6SM -RA VCTS BKN008 OVC040CB
     FM011500 18020G33KT 1SM +TSRA BR BKN007 OVC015CB
     FM011615 17010KT 5SM -RA BR VCTS OVC035CB
     FM011800 16008KT P6SM VCSH BKN050
     FM020000 15007KT P6SM BKN060
     FM020800 16005KT P6SM VCSH BKN015 OVC025=

USA.gov is the U.S. government's official web portal to all federal, state and local government web resources and services.